Pagrindinis puslapis
METAR-TAF:

METAR-TAF

Oro uostai :

Busanas, Pietų Korėja

platuma: 35-11N, ilguma: 128-56E, Aukštis: 4 m

Dabartinis oras

Ataskaita buvo paskelbta 1 valandą ir 2 minutes, ne 00:00 UTC
Vėjas 8 kt iš Šiaurės
Temperatūra 10°C
Drėgmė 57%
Slėgis 1026 hPa
Matomumas 10 km arba daugiau
Su prošvaistėmis ne aukštis 4500 ft
Apsiniaukę ne aukštis 7000 ft

METAR: RKPK 100000Z 36008KT 9999 BKN045 OVC070 10/02 Q1026

Laikas: 10:02 (01:02 UTC)

Prognozė

Ataskaita buvo paskelbta 2 valandos ir 2 minutes, ne 23:00 UTC
Prognozė galioja nuo 10 metu 00 UTC su 11 metu 06 UTC
Vėjas 6 kt iš Šiaurės/Šiaurės Rytų
Matomumas 10 km arba daugiau
Su prošvaistėmis ne aukštis 4000 ft
Tapsmas
nuo 10 metu 02 UTC su 10 metu 03 UTC
Vėjas 6 kt iš Rytų

TAF: RKPK 092300Z 1000/1106 03006KT 9999 BKN040 TX16/1006Z TN08/1021Z BECMG 1002/1003 09006KT

Orai ataskaitas ir orų prognozės (METAR, TAF).

turimą stotys yra geltonos ir raudonos taškus žemėlapyje.

Perkelti pele per norėdami pamatyti stoties vardą.

Tada spustelėkite, norėdami matyti oro stebėjimo ir prognozės.

Norėdami pakeisti žemėlapį: spustelėkite ant žalios mygtukų su juodo kryžiaus žemyn,; žalią mygtuką su brūkšneliu, jei norite nutolinti; arba žalių rodyklių gretimoms žemėlapius.


METAR-TAF: